Vriezenveen, Netherlands
Current Conditions -  °F | °C
As of 5:20 PM on Friday 24 Oct 2014 (Local Time) from ETWM Reporting Station
NA  
Wind Chill: 55°   Ceiling: NA
Heat Index: 55°   Visibility: 6mi
Dew Point: 46°   Wind: 8mph
Humidity: 72%   Direction: 180°S
Pressure: 30.03"   Gusts: NA
Location:  52.41°N, 6.62°E
Report Text: ETWM 241520Z AUTO 18007KT 9999 // ////// 13/08 Q1017 ///
Loading
Personal Weather Stations






























Interactive Weather Map
Tropical Storm Tracking
New forecast layout! Learn more

10-Day Weather Forecast

Advertisements
Track Severe Weather on mobile